KBFL/BFL METAR and TAF weather

Enter ICAO airport designator
Station Type Date Time Source
KBFL METAR 2021/05/11 22:54 UTC NOAA

KBFL 112254Z 31010KT 9SM CLR 34/02 A2981 RMK AO2 SLP088 T03390022


Station Type Date Time Source
KBFL Decoded METAR 2021/05/11 22:54 UTC NOAA

BAKERSFIELD MEADOWS FIELD, CA, United States (KBFL) 35-26N 119-03W 151M
May 11, 2021 - 06:54 PM EDT / 2021.05.11 2254 UTC
Wind: from the NW (310 degrees) at 12 MPH (10 KT):0
Visibility: 9 mile(s):0
Sky conditions: clear
Temperature: 93.0 F (33.9 C)
Dew Point: 36.0 F (2.2 C)
Relative Humidity: 13%
Pressure (altimeter): 29.81 in. Hg (1009 hPa)
ob: KBFL 112254Z 31010KT 9SM CLR 34/02 A2981 RMK AO2 SLP088 T03390022
cycle: 23

Station Type Date Time Source
KBFL TAF 2021/05/11 18:21 UTC NOAA

TAF KBFL 111720Z 1118/1218 00000KT P6SM SKC
FM112000 32007KT P6SM SKC
FM121200 14004KT P6SM SKC

Example: see airport list